Time;durP1;ratioP1;P1;durP2;ratioP2;P2;SDS_P1;SDS_P2;PMS_P1;PMS_P2;Temp;Humidity;BMP_temperature;BMP_pressure;BME280_temperature;BME280_humidity;BME280_pressure;Samples;Min_cycle;Max_cycle;Signal;HPM_P1;HPM_P2
2021/12/02 00:00:25;;;;;;;0.55;0.10;;;6.80;99.90;;;;;;4970355;28;20584;-79
2021/12/02 06:01:24;;;;;;;3.28;0.90;;;5.70;99.90;;;;;;5442512;23;20063;-77
2021/12/02 06:03:51;;;;;;;3.13;1.17;;;5.70;99.90;;;;;;4974348;28;20331;-78
2021/12/02 06:06:23;;;;;;;2.30;0.80;;;5.70;99.90;;;;;;4974405;28;20078;-77
2021/12/02 06:08:50;;;;;;;3.55;0.95;;;5.70;99.90;;;;;;4974259;28;20054;-79
2021/12/02 06:11:17;;;;;;;2.40;0.90;;;5.70;99.90;;;;;;4973996;28;20138;-78
2021/12/02 06:13:46;;;;;;;3.15;1.00;;;5.60;99.90;;;;;;4973989;28;20133;-79
2021/12/02 06:16:15;;;;;;;2.25;0.80;;;5.70;99.90;;;;;;4973803;28;20051;-78
2021/12/02 06:18:43;;;;;;;2.70;0.90;;;5.70;99.90;;;;;;4973819;28;20060;-80
2021/12/02 06:21:11;;;;;;;1.95;0.70;;;5.60;99.90;;;;;;4973834;28;20051;-79
2021/12/02 06:23:40;;;;;;;1.98;0.77;;;5.70;99.90;;;;;;4973499;28;20593;-79
2021/12/02 06:26:07;;;;;;;2.42;0.77;;;5.70;99.90;;;;;;4973703;28;20051;-78
2021/12/02 06:28:35;;;;;;;2.15;0.70;;;5.70;99.90;;;;;;4973525;28;20043;-79
2021/12/02 06:31:02;;;;;;;2.40;0.77;;;5.70;99.90;;;;;;4973541;28;20086;-80
2021/12/02 06:33:30;;;;;;;2.97;1.00;;;5.70;99.90;;;;;;4973462;28;20061;-79
2021/12/02 06:35:59;;;;;;;2.83;1.00;;;5.70;99.90;;;;;;4973319;28;20090;-78
2021/12/02 06:38:26;;;;;;;3.53;0.98;;;5.60;99.90;;;;;;4973264;28;20130;-79
2021/12/02 06:40:54;;;;;;;2.45;1.00;;;5.60;99.90;;;;;;4973489;28;20130;-78
2021/12/02 06:43:21;;;;;;;3.47;0.90;;;5.60;99.90;;;;;;4973268;28;20057;-78
2021/12/02 06:45:48;;;;;;;3.67;0.80;;;5.60;99.90;;;;;;4973293;28;20142;-78
2021/12/02 06:48:15;;;;;;;2.75;0.90;;;5.60;99.90;;;;;;4973223;28;20089;-79
2021/12/02 06:50:43;;;;;;;3.35;0.90;;;5.60;99.90;;;;;;4973150;28;20054;-80
2021/12/02 06:53:12;;;;;;;2.75;0.90;;;5.50;99.90;;;;;;4973409;28;20456;-79
2021/12/02 06:55:39;;;;;;;3.00;1.00;;;5.50;99.90;;;;;;4972040;28;20049;-80
2021/12/02 06:58:06;;;;;;;2.25;0.82;;;5.50;99.90;;;;;;4973047;28;20129;-77
2021/12/02 07:00:33;;;;;;;3.05;1.02;;;5.50;99.90;;;;;;4972967;28;20051;-79
2021/12/02 07:03:01;;;;;;;2.83;1.05;;;5.50;99.90;;;;;;4973162;28;20126;-79
2021/12/02 07:05:32;;;;;;;3.40;1.30;;;5.40;99.90;;;;;;4972968;28;20051;-80
2021/12/02 07:08:00;;;;;;;2.60;0.90;;;5.40;99.90;;;;;;4974139;28;20083;-77
2021/12/02 07:10:31;;;;;;;2.95;1.00;;;5.40;99.90;;;;;;4979377;28;20054;-79
2021/12/02 07:12:59;;;;;;;2.97;1.00;;;5.40;99.90;;;;;;4981452;28;20058;-80
2021/12/02 07:15:29;;;;;;;2.33;1.20;;;5.40;99.90;;;;;;4979747;28;20074;-79
2021/12/02 07:17:59;;;;;;;2.13;0.80;;;5.40;99.90;;;;;;4979758;28;20058;-78
2021/12/02 07:20:29;;;;;;;3.67;0.98;;;5.40;99.90;;;;;;4979803;28;20053;-78
2021/12/02 07:22:56;;;;;;;3.75;0.93;;;5.40;99.90;;;;;;4980049;28;20515;-78
2021/12/02 07:25:23;;;;;;;2.72;0.80;;;5.40;99.90;;;;;;4981055;28;20086;-79
2021/12/02 07:27:52;;;;;;;2.63;1.00;;;5.40;99.90;;;;;;4981351;28;20082;-78
2021/12/02 07:30:19;;;;;;;2.72;1.10;;;5.40;99.90;;;;;;4983129;28;20559;-79
2021/12/02 07:32:53;;;;;;;4.15;1.45;;;5.40;99.90;;;;;;4981111;28;20074;-77
2021/12/02 07:35:20;;;;;;;2.33;0.80;;;5.40;99.90;;;;;;4979461;28;20125;-78
2021/12/02 07:37:54;;;;;;;2.80;0.90;;;5.40;99.90;;;;;;4979057;28;20804;-78
2021/12/02 07:40:24;;;;;;;1.90;0.90;;;5.40;99.90;;;;;;4979371;28;20058;-79
2021/12/02 07:42:54;;;;;;;2.88;1.20;;;5.30;99.90;;;;;;4979138;28;20130;-79
2021/12/02 07:45:23;;;;;;;2.70;1.00;;;5.40;99.90;;;;;;4979328;28;20134;-78
2021/12/02 07:47:51;;;;;;;2.42;0.90;;;5.40;99.90;;;;;;4979479;28;20050;-79
2021/12/02 07:50:20;;;;;;;3.22;1.00;;;5.40;99.90;;;;;;4979065;28;20437;-80
2021/12/02 07:52:51;;;;;;;2.90;1.10;;;5.40;99.90;;;;;;4979065;28;20050;-80
2021/12/02 07:55:20;;;;;;;4.28;1.00;;;5.40;99.90;;;;;;4979024;28;20062;-78
2021/12/02 07:57:48;;;;;;;2.47;1.00;;;5.40;99.90;;;;;;4978906;28;20137;-78
2021/12/02 08:00:20;;;;;;;2.97;0.95;;;5.40;99.90;;;;;;4979155;28;20699;-79
2021/12/02 08:02:49;;;;;;;3.20;1.10;;;5.40;99.90;;;;;;4977756;28;20142;-80
2021/12/02 08:05:18;;;;;;;2.83;1.00;;;5.40;99.90;;;;;;4981079;28;20046;-79
2021/12/02 08:07:46;;;;;;;3.00;0.80;;;5.50;99.90;;;;;;4978769;28;20086;-78
2021/12/02 08:10:15;;;;;;;2.90;0.98;;;5.50;99.90;;;;;;4979079;28;20129;-80
2021/12/02 08:12:47;;;;;;;3.28;1.00;;;5.50;99.90;;;;;;4978793;28;20137;-78
2021/12/02 08:15:18;;;;;;;2.35;0.90;;;5.50;99.90;;;;;;4978987;28;20492;-78
2021/12/02 08:17:46;;;;;;;2.58;1.23;;;5.60;99.90;;;;;;4977510;28;20090;-79
2021/12/02 08:20:14;;;;;;;3.15;0.88;;;5.60;99.90;;;;;;4977886;28;20109;-79
2021/12/02 08:22:41;;;;;;;2.10;0.90;;;5.60;99.90;;;;;;4976008;28;20146;-77
2021/12/02 08:25:09;;;;;;;2.10;0.85;;;5.60;99.90;;;;;;4976510;28;20050;-79
2021/12/02 08:27:37;;;;;;;2.83;0.95;;;5.60;99.90;;;;;;4969370;28;20479;-77
2021/12/02 08:30:06;;;;;;;3.92;0.98;;;5.70;99.90;;;;;;4969739;28;20563;-78
2021/12/02 08:32:36;;;;;;;3.22;1.05;;;5.70;99.90;;;;;;4975654;28;20054;-81
2021/12/02 08:35:04;;;;;;;3.00;1.00;;;5.70;99.90;;;;;;4975739;28;20563;-78
2021/12/02 08:37:34;;;;;;;4.38;1.20;;;5.70;99.90;;;;;;4971395;28;20154;-77
2021/12/02 08:40:03;;;;;;;2.78;1.17;;;5.70;99.90;;;;;;4975622;28;20046;-78
2021/12/02 08:42:31;;;;;;;4.90;1.00;;;5.80;99.90;;;;;;4975539;28;20150;-82
2021/12/02 08:44:59;;;;;;;3.67;1.08;;;5.80;99.90;;;;;;4976527;28;20130;-80
2021/12/02 08:47:28;;;;;;;5.70;1.23;;;5.80;99.90;;;;;;4973948;28;20125;-82
2021/12/02 08:49:58;;;;;;;2.83;1.10;;;5.80;99.90;;;;;;4955534;28;20055;-81
2021/12/02 08:52:30;;;;;;;3.35;1.30;;;5.80;99.90;;;;;;4972830;28;20102;-79
2021/12/02 08:54:57;;;;;;;4.35;1.35;;;5.80;99.90;;;;;;4972755;28;20051;-77
2021/12/02 08:57:25;;;;;;;3.13;1.00;;;5.80;99.90;;;;;;4973035;28;20146;-78
2021/12/02 08:59:52;;;;;;;3.40;1.08;;;5.80;99.90;;;;;;4971943;28;20800;-81
2021/12/02 09:02:20;;;;;;;2.25;0.90;;;5.80;99.90;;;;;;4972126;28;20464;-78
2021/12/02 09:04:47;;;;;;;3.67;1.20;;;5.80;99.90;;;;;;4964017;28;20047;-79
2021/12/02 09:07:18;;;;;;;3.13;1.17;;;5.80;99.90;;;;;;4953109;29;20047;-80
2021/12/02 09:09:45;;;;;;;3.10;1.10;;;5.80;99.90;;;;;;4952971;29;20465;-79
2021/12/02 09:12:14;;;;;;;2.22;0.80;;;5.80;99.90;;;;;;4952802;29;20134;-78
2021/12/02 09:14:41;;;;;;;1.92;0.73;;;5.80;99.90;;;;;;4952886;28;20047;-79
2021/12/02 09:17:09;;;;;;;3.03;0.82;;;5.80;99.90;;;;;;4952859;29;20138;-81
2021/12/02 09:19:36;;;;;;;2.08;0.70;;;5.80;99.90;;;;;;4952861;28;20466;-77
2021/12/02 09:22:04;;;;;;;2.20;0.77;;;5.80;99.90;;;;;;4952747;29;20143;-79
2021/12/02 09:24:32;;;;;;;2.97;0.90;;;5.80;99.90;;;;;;4966045;28;20138;-77
2021/12/02 09:26:59;;;;;;;2.30;0.73;;;5.90;99.90;;;;;;4971166;28;20404;-79
2021/12/02 09:29:27;;;;;;;1.92;0.90;;;5.90;99.90;;;;;;4972075;28;20148;-78
2021/12/02 09:31:54;;;;;;;1.88;0.60;;;6.00;99.90;;;;;;4971272;28;20863;-78
2021/12/02 09:34:22;;;;;;;1.92;0.70;;;6.00;99.90;;;;;;4971772;28;20137;-79
2021/12/02 09:36:50;;;;;;;2.85;0.75;;;6.00;99.90;;;;;;4971877;28;20126;-79
2021/12/02 09:39:17;;;;;;;2.35;0.80;;;6.10;99.90;;;;;;4960130;28;20048;-79
2021/12/02 09:41:47;;;;;;;2.15;0.70;;;6.20;99.90;;;;;;4953531;28;20058;-78
2021/12/02 09:44:16;;;;;;;3.40;0.93;;;6.20;99.90;;;;;;4952368;29;20055;-78
2021/12/02 09:46:43;;;;;;;2.70;0.77;;;6.20;99.90;;;;;;4952505;29;20055;-80
2021/12/02 09:49:12;;;;;;;2.55;0.77;;;6.20;99.90;;;;;;4952256;29;20457;-79
2021/12/02 09:51:46;;;;;;;2.55;1.05;;;6.20;99.90;;;;;;4952066;29;20138;-78
2021/12/02 09:54:18;;;;;;;2.53;0.90;;;6.20;99.90;;;;;;4952026;29;20062;-79
2021/12/02 09:56:49;;;;;;;2.15;0.77;;;6.20;99.90;;;;;;4952078;29;20145;-81
2021/12/02 09:59:26;;;;;;;4.55;0.85;;;6.20;99.90;;;;;;4952899;28;20049;-79
2021/12/02 10:01:59;;;;;;;1.92;0.70;;;6.20;99.90;;;;;;4951705;28;20496;-78
2021/12/02 10:04:30;;;;;;;2.47;0.80;;;6.20;99.90;;;;;;4952118;29;20051;-77
2021/12/02 10:07:16;;;;;;;2.38;0.77;;;6.30;99.90;;;;;;4952087;29;20173;-79
2021/12/02 10:09:57;;;;;;;2.00;0.70;;;6.30;99.90;;;;;;4951681;29;20138;-79
2021/12/02 10:12:26;;;;;;;4.50;1.00;;;6.30;99.90;;;;;;4951930;29;20047;-79
2021/12/02 10:14:58;;;;;;;1.75;0.85;;;6.30;99.90;;;;;;4951374;29;20055;-77
2021/12/02 10:17:33;;;;;;;2.35;0.98;;;6.30;99.90;;;;;;4951979;29;20082;-78
2021/12/02 10:20:19;;;;;;;4.32;1.30;;;6.30;99.90;;;;;;4957879;28;20046;-79
2021/12/02 10:23:11;;;;;;;3.85;1.10;;;6.30;99.90;;;;;;4970381;28;20449;-79
2021/12/02 10:25:39;;;;;;;5.55;2.70;;;6.40;99.90;;;;;;4961845;28;20050;-78
2021/12/02 10:28:10;;;;;;;3.85;1.30;;;6.40;99.90;;;;;;4973495;28;20086;-76
2021/12/02 10:30:42;;;;;;;4.00;1.30;;;6.40;99.90;;;;;;4970977;28;20050;-80
2021/12/02 10:33:09;;;;;;;4.80;0.90;;;6.50;99.90;;;;;;4973613;28;20054;-79
2021/12/02 10:35:45;;;;;;;2.33;0.88;;;6.50;99.90;;;;;;4971269;28;20089;-80
2021/12/02 10:38:39;;;;;;;2.63;0.90;;;6.50;99.90;;;;;;4960447;28;20087;-79
2021/12/02 10:41:10;;;;;;;2.90;0.82;;;6.50;99.90;;;;;;4953185;29;20054;-79
2021/12/02 10:44:06;;;;;;;2.30;0.80;;;6.50;99.90;;;;;;4951169;28;20146;-80
2021/12/02 10:46:35;;;;;;;4.97;1.10;;;6.40;99.90;;;;;;4951415;28;20055;-79
2021/12/02 10:49:04;;;;;;;2.42;0.82;;;6.40;99.90;;;;;;4951006;29;20103;-80
2021/12/02 10:51:38;;;;;;;2.75;0.93;;;6.30;99.90;;;;;;4951259;29;20051;-78
2021/12/02 10:54:12;;;;;;;3.75;1.02;;;6.40;99.90;;;;;;4951285;29;20058;-77
2021/12/02 10:56:41;;;;;;;2.25;0.82;;;6.30;99.90;;;;;;4951276;29;20047;-78
2021/12/02 10:59:39;;;;;;;2.85;1.00;;;6.30;99.90;;;;;;4950398;29;20492;-78
2021/12/02 11:02:08;;;;;;;2.45;0.90;;;6.30;99.90;;;;;;4951077;29;20054;-79
2021/12/02 11:04:40;;;;;;;1.63;0.52;;;6.20;99.90;;;;;;4951065;29;20173;-80
2021/12/02 11:07:12;;;;;;;1.23;0.50;;;6.00;99.90;;;;;;4951368;29;20106;-78
2021/12/02 11:09:41;;;;;;;1.23;0.50;;;5.80;99.90;;;;;;4951874;29;20067;-80
2021/12/02 11:12:18;;;;;;;1.35;0.47;;;5.60;99.90;;;;;;4951728;29;20082;-78
2021/12/02 11:15:08;;;;;;;0.55;0.20;;;5.30;99.90;;;;;;4952378;29;20051;-77
2021/12/02 11:17:40;;;;;;;1.45;0.47;;;5.10;99.90;;;;;;4951213;29;20047;-79
2021/12/02 11:20:11;;;;;;;1.15;0.40;;;4.90;99.90;;;;;;4953212;29;20051;-78
2021/12/02 11:22:39;;;;;;;0.95;0.32;;;4.80;99.90;;;;;;4952300;29;20457;-79
2021/12/02 11:25:11;;;;;;;1.90;0.47;;;4.60;99.90;;;;;;4952414;29;20133;-79
2021/12/02 11:27:42;;;;;;;1.30;0.40;;;4.50;99.90;;;;;;4952907;28;20051;-81
2021/12/02 11:30:16;;;;;;;0.75;0.22;;;4.50;99.90;;;;;;4967044;28;20616;-79
2021/12/02 11:32:48;;;;;;;0.67;0.27;;;4.50;99.90;;;;;;4971504;28;20055;-78
2021/12/02 11:35:25;;;;;;;0.90;0.30;;;4.50;99.90;;;;;;4971247;28;20509;-79
2021/12/02 11:37:59;;;;;;;1.75;0.40;;;4.40;99.90;;;;;;4968872;28;20046;-80
2021/12/02 11:40:30;;;;;;;0.73;0.30;;;4.40;99.90;;;;;;4969942;28;20105;-80
2021/12/02 11:43:01;;;;;;;2.13;0.50;;;4.40;99.90;;;;;;4971174;28;20343;-80
2021/12/02 11:45:33;;;;;;;1.08;0.40;;;4.40;99.90;;;;;;4970608;28;20105;-80
2021/12/02 11:48:00;;;;;;;0.98;0.40;;;4.50;99.90;;;;;;4970992;28;20440;-78
2021/12/02 11:50:30;;;;;;;0.93;0.40;;;4.50;99.90;;;;;;4969974;28;20440;-78
2021/12/02 11:52:57;;;;;;;1.60;0.47;;;4.50;99.90;;;;;;4970224;28;20169;-80
2021/12/02 11:55:28;;;;;;;1.50;0.50;;;4.50;99.90;;;;;;4972364;28;20058;-78
2021/12/02 11:57:57;;;;;;;0.57;0.40;;;4.50;99.90;;;;;;4970939;28;20047;-79
2021/12/02 12:00:31;;;;;;;1.50;0.43;;;4.60;99.90;;;;;;4954867;29;20142;-79
2021/12/02 12:03:03;;;;;;;1.45;0.60;;;4.60;99.90;;;;;;4953768;29;20509;-78
2021/12/02 12:05:33;;;;;;;1.80;0.80;;;4.60;99.90;;;;;;4953791;29;20561;-79
2021/12/02 12:08:01;;;;;;;2.67;0.85;;;4.60;99.90;;;;;;4965668;28;20078;-79
2021/12/02 12:10:34;;;;;;;1.63;0.63;;;4.70;99.90;;;;;;4973495;28;20050;-78
2021/12/02 12:13:21;;;;;;;2.22;0.77;;;4.70;99.90;;;;;;4975078;28;20057;-80
2021/12/02 12:15:53;;;;;;;1.98;0.60;;;4.70;99.90;;;;;;4973195;28;20055;-78
2021/12/02 12:18:40;;;;;;;1.73;0.70;;;4.70;99.90;;;;;;4971560;28;20567;-77
2021/12/02 12:21:10;;;;;;;2.25;0.80;;;4.70;99.90;;;;;;4972941;28;20042;-80
2021/12/02 12:23:47;;;;;;;2.13;0.73;;;4.70;99.90;;;;;;4973117;28;20134;-77
2021/12/02 12:26:26;;;;;;;1.70;0.60;;;4.70;99.90;;;;;;4973155;28;20054;-80
2021/12/02 12:29:20;;;;;;;2.17;0.73;;;4.80;99.90;;;;;;4972735;28;20055;-79
2021/12/02 12:32:45;;;;;;;2.13;1.00;;;4.80;99.90;;;;;;4972919;28;20471;-78
2021/12/02 12:35:29;;;;;;;4.70;0.80;;;4.90;99.90;;;;;;4963356;28;20050;-79
2021/12/02 12:38:05;;;;;;;1.73;0.60;;;4.90;99.90;;;;;;4970076;28;20050;-78
2021/12/02 12:40:49;;;;;;;2.53;0.70;;;4.90;99.90;;;;;;4966320;28;20499;-78
2021/12/02 12:43:32;;;;;;;2.17;0.60;;;4.80;99.90;;;;;;4953112;29;20055;-79
2021/12/02 12:46:14;;;;;;;2.10;0.60;;;4.90;99.90;;;;;;4953671;29;20059;-79
2021/12/02 12:48:44;;;;;;;2.40;0.63;;;4.90;99.90;;;;;;4952852;29;20143;-77
2021/12/02 12:51:19;;;;;;;2.35;0.75;;;4.90;99.90;;;;;;4953025;29;20043;-79
2021/12/02 12:53:49;;;;;;;2.60;0.90;;;5.00;99.90;;;;;;4953320;29;20146;-77
2021/12/02 12:56:18;;;;;;;2.40;0.70;;;5.00;99.90;;;;;;4952788;29;20381;-79
2021/12/02 12:59:15;;;;;;;2.95;0.90;;;5.00;99.90;;;;;;4953474;29;20473;-80
2021/12/02 13:01:57;;;;;;;2.85;0.80;;;5.00;99.90;;;;;;4930454;29;20480;-77
2021/12/02 13:04:27;;;;;;;3.63;1.27;;;5.00;99.90;;;;;;4953317;29;20146;-80
2021/12/02 13:07:16;;;;;;;2.05;0.80;;;4.90;99.90;;;;;;4952831;28;20094;-77
2021/12/02 13:10:00;;;;;;;2.72;1.10;;;5.00;99.90;;;;;;4952976;29;20047;-78
2021/12/02 13:12:52;;;;;;;2.47;0.90;;;5.00;99.90;;;;;;4953708;29;20102;-77
2021/12/02 13:15:23;;;;;;;1.30;0.70;;;5.00;99.90;;;;;;4952965;29;20055;-79
2021/12/02 13:17:52;;;;;;;1.98;0.93;;;5.00;99.90;;;;;;4953448;29;20122;-81
2021/12/02 13:20:39;;;;;;;2.28;1.08;;;4.90;99.90;;;;;;4953443;29;20062;-79
2021/12/02 13:23:32;;;;;;;2.55;1.00;;;5.00;99.90;;;;;;4952889;29;20054;-80
2021/12/02 13:26:04;;;;;;;3.67;1.00;;;5.00;99.90;;;;;;4952968;29;20062;-78
2021/12/02 13:28:34;;;;;;;3.35;1.00;;;5.00;99.90;;;;;;4966774;28;20058;-78
2021/12/02 13:31:07;;;;;;;2.55;1.00;;;5.00;99.90;;;;;;4972405;28;20047;-79
2021/12/02 13:33:39;;;;;;;2.63;1.00;;;5.00;99.90;;;;;;4973500;28;20106;-78
2021/12/02 13:36:11;;;;;;;2.22;0.90;;;5.10;99.90;;;;;;4973957;28;20082;-79
2021/12/02 13:38:41;;;;;;;2.75;0.90;;;5.00;99.90;;;;;;4973631;28;20049;-78
2021/12/02 13:41:20;;;;;;;2.33;0.80;;;5.10;99.90;;;;;;4973356;28;20051;-80
2021/12/02 13:43:58;;;;;;;2.75;0.93;;;5.10;99.90;;;;;;4973769;28;20111;-79
2021/12/02 13:46:31;;;;;;;2.35;0.85;;;5.10;99.90;;;;;;4972377;28;20047;-78
2021/12/02 13:49:01;;;;;;;1.75;0.70;;;5.10;99.90;;;;;;4971882;28;20051;-79
2021/12/02 13:54:25;;;;;;;2.40;0.90;;;5.10;99.90;;;;;;4972779;28;20062;-78
2021/12/02 13:56:53;;;;;;;2.58;0.90;;;5.10;99.90;;;;;;4970294;28;20047;-77
2021/12/02 13:59:23;;;;;;;2.80;0.95;;;5.10;99.90;;;;;;4973129;28;20046;-78
2021/12/02 14:01:56;;;;;;;3.08;1.00;;;5.00;99.90;;;;;;4971296;28;20046;-78
2021/12/02 14:04:25;;;;;;;3.80;1.20;;;5.00;99.90;;;;;;4972827;28;20145;-78
2021/12/02 14:07:17;;;;;;;3.05;1.20;;;5.00;99.90;;;;;;4972179;28;20070;-79
2021/12/02 14:09:47;;;;;;;3.40;1.30;;;4.90;99.90;;;;;;4973751;28;20086;-78
2021/12/02 14:12:15;;;;;;;3.72;1.50;;;4.80;99.90;;;;;;4974586;28;20054;-79
2021/12/02 14:15:07;;;;;;;3.03;1.30;;;4.80;99.90;;;;;;4974396;28;20290;-78
2021/12/02 14:17:49;;;;;;;2.95;1.17;;;4.80;99.90;;;;;;4973734;28;20053;-79
2021/12/02 14:20:17;;;;;;;2.35;0.88;;;4.70;99.90;;;;;;4973226;28;20397;-81
2021/12/02 14:22:51;;;;;;;2.53;1.10;;;4.70;99.90;;;;;;4971415;28;20089;-79
2021/12/02 14:25:20;;;;;;;2.45;1.00;;;4.60;99.90;;;;;;4952405;29;20595;-80
2021/12/02 14:28:06;;;;;;;2.22;0.90;;;4.60;99.90;;;;;;4953204;29;20113;-80
2021/12/02 14:30:38;;;;;;;2.38;0.85;;;4.50;99.90;;;;;;4952117;29;20463;-80
2021/12/02 14:33:07;;;;;;;4.05;1.00;;;4.50;99.90;;;;;;4952779;29;20058;-79
2021/12/02 14:35:45;;;;;;;2.03;0.73;;;4.40;99.90;;;;;;4953482;28;20405;-78
2021/12/02 14:38:36;;;;;;;2.35;1.02;;;4.40;99.90;;;;;;4952313;29;20457;-81
2021/12/02 14:41:14;;;;;;;6.13;2.55;;;4.40;99.90;;;;;;4948317;29;20095;-80
2021/12/02 14:43:51;;;;;;;2.45;0.70;;;4.40;99.90;;;;;;4951937;29;20051;-80
2021/12/02 14:46:25;;;;;;;4.43;1.08;;;4.30;99.90;;;;;;4951872;29;20139;-80
2021/12/02 14:49:09;;;;;;;3.10;0.70;;;4.30;99.90;;;;;;4952324;29;20079;-78
2021/12/02 14:51:55;;;;;;;2.30;0.60;;;4.30;99.90;;;;;;4952806;29;20306;-79
2021/12/02 14:54:36;;;;;;;2.05;0.60;;;4.30;99.90;;;;;;4951514;29;20536;-78
2021/12/02 14:57:06;;;;;;;1.80;0.80;;;4.20;99.90;;;;;;4951978;28;20110;-79
2021/12/02 14:59:36;;;;;;;2.17;0.80;;;4.30;99.90;;;;;;4956468;28;20050;-76
2021/12/02 15:02:11;;;;;;;2.17;0.80;;;4.20;99.90;;;;;;4970410;28;20050;-79
2021/12/02 15:04:49;;;;;;;2.40;0.60;;;4.30;99.90;;;;;;4970277;28;20574;-76
2021/12/02 15:07:21;;;;;;;2.25;0.90;;;4.20;99.90;;;;;;4970220;28;20086;-81
2021/12/02 15:09:52;;;;;;;2.08;0.75;;;4.20;99.90;;;;;;4970975;28;20046;-79
2021/12/02 15:12:28;;;;;;;1.98;0.70;;;4.20;99.90;;;;;;4965598;28;20074;-77
2021/12/02 15:15:07;;;;;;;2.75;0.80;;;4.20;99.90;;;;;;4951113;29;20114;-79
2021/12/02 15:17:42;;;;;;;1.98;0.80;;;4.20;99.90;;;;;;4952307;28;20420;-77
2021/12/02 15:20:13;;;;;;;;;;;4.20;99.90;;;;;;4953975;28;20055;-78
2021/12/02 15:22:41;;;;;;;1.30;0.60;;;4.20;99.90;;;;;;4951094;29;20378;-77
2021/12/02 15:25:17;;;;;;;1.63;0.70;;;4.10;99.90;;;;;;4951151;29;20083;-77
2021/12/02 15:28:23;;;;;;;1.38;0.43;;;4.10;99.90;;;;;;4955633;28;20138;-80
2021/12/02 15:30:55;;;;;;;1.27;0.57;;;4.00;99.90;;;;;;4955157;28;20058;-79
2021/12/02 15:33:26;;;;;;;2.08;0.70;;;4.00;99.90;;;;;;4955408;29;20055;-79
2021/12/02 15:35:54;;;;;;;1.48;0.60;;;3.90;99.90;;;;;;4955365;29;20138;-79
2021/12/02 15:38:21;;;;;;;1.42;0.70;;;3.90;99.90;;;;;;4956174;29;20157;-77
2021/12/02 15:40:53;;;;;;;2.78;0.75;;;3.90;99.90;;;;;;4956018;29;20944;-80
2021/12/02 15:43:25;;;;;;;2.15;0.88;;;3.90;99.90;;;;;;4956100;29;20083;-78
2021/12/02 15:45:53;;;;;;;2.72;1.08;;;3.90;99.90;;;;;;4955906;29;20563;-77
2021/12/02 15:48:21;;;;;;;3.30;1.30;;;3.90;99.90;;;;;;4955646;29;20130;-80
2021/12/02 15:50:49;;;;;;;2.80;1.23;;;3.80;99.90;;;;;;4955068;29;20453;-78
2021/12/02 15:53:17;;;;;;;2.85;1.23;;;3.80;99.90;;;;;;4954680;29;20097;-80
2021/12/02 15:55:48;;;;;;;2.83;1.13;;;3.80;99.90;;;;;;4955279;29;20063;-78
2021/12/02 15:58:17;;;;;;;3.35;1.30;;;3.80;99.90;;;;;;4955132;29;20129;-81
2021/12/02 16:00:50;;;;;;;3.55;1.20;;;3.80;99.90;;;;;;4954778;29;20051;-79
2021/12/02 16:03:22;;;;;;;3.03;1.30;;;3.70;99.90;;;;;;4955811;29;20050;-82
2021/12/02 16:06:04;;;;;;;5.30;1.30;;;3.70;99.90;;;;;;4955994;29;20138;-80
2021/12/02 16:08:37;;;;;;;3.92;1.50;;;3.70;99.90;;;;;;4955394;29;20069;-80
2021/12/02 16:11:14;;;;;;;3.00;1.30;;;3.60;99.90;;;;;;4955321;29;20102;-80
2021/12/02 16:13:43;;;;;;;3.30;1.30;;;3.60;99.90;;;;;;4953961;29;20086;-77
2021/12/02 16:16:11;;;;;;;3.85;1.20;;;3.60;99.90;;;;;;4953633;29;20139;-80
2021/12/02 16:18:39;;;;;;;3.10;1.17;;;3.60;99.90;;;;;;4955367;29;20061;-80
2021/12/02 16:21:08;;;;;;;3.95;1.30;;;3.60;99.90;;;;;;4956423;29;20540;-81
2021/12/02 16:23:36;;;;;;;2.65;1.08;;;3.60;99.90;;;;;;4956551;29;20138;-81
2021/12/02 16:26:05;;;;;;;2.03;0.95;;;3.50;99.90;;;;;;4956037;29;20051;-79
2021/12/02 16:28:32;;;;;;;2.83;1.00;;;3.40;99.90;;;;;;4957563;29;20130;-79
2021/12/02 16:31:02;;;;;;;2.47;0.90;;;3.40;99.90;;;;;;4958064;28;20142;-79
2021/12/02 16:33:31;;;;;;;2.47;0.82;;;3.40;99.90;;;;;;4973519;28;20492;-88
2021/12/02 16:35:59;;;;;;;2.30;0.90;;;3.30;99.90;;;;;;4956934;28;20057;-80
2021/12/02 16:38:33;;;;;;;2.92;0.80;;;3.30;99.90;;;;;;4959731;28;20531;-81
2021/12/02 16:41:01;;;;;;;2.22;0.98;;;3.20;99.90;;;;;;4968764;28;20781;-81
2021/12/02 16:43:29;;;;;;;5.35;1.35;;;3.20;99.90;;;;;;4964359;28;20047;-78
2021/12/02 16:46:03;;;;;;;2.13;0.90;;;3.10;99.90;;;;;;4973337;28;20062;-80
2021/12/02 16:48:32;;;;;;;2.35;1.08;;;3.10;99.90;;;;;;4978811;28;20055;-81
2021/12/02 16:51:01;;;;;;;3.28;1.00;;;3.00;99.90;;;;;;4970173;28;20134;-80
2021/12/02 16:53:30;;;;;;;2.67;0.77;;;3.00;99.90;;;;;;4958575;28;20089;-80
2021/12/02 16:55:58;;;;;;;1.95;0.80;;;3.00;99.90;;;;;;4960811;28;20055;-80
2021/12/02 16:58:25;;;;;;;1.85;0.80;;;2.90;99.90;;;;;;4977010;28;20078;-81
2021/12/02 17:00:53;;;;;;;3.13;0.93;;;3.00;99.90;;;;;;4979937;28;20126;-81
2021/12/02 17:03:32;;;;;;;2.63;1.02;;;3.00;99.90;;;;;;4979513;28;20135;-81
2021/12/02 17:05:59;;;;;;;3.58;1.00;;;3.00;99.90;;;;;;4970304;28;20400;-81
2021/12/02 17:08:33;;;;;;;3.30;1.10;;;3.00;99.90;;;;;;4975681;28;20094;-82
2021/12/02 17:11:03;;;;;;;3.40;1.10;;;3.00;99.90;;;;;;4958973;28;20477;-82
2021/12/02 17:13:31;;;;;;;2.85;0.98;;;3.10;99.90;;;;;;4965970;28;20079;-80
2021/12/02 17:15:58;;;;;;;3.50;1.30;;;3.10;99.90;;;;;;4957148;29;20496;-82
2021/12/02 17:18:28;;;;;;;3.40;1.30;;;3.10;99.90;;;;;;4963174;28;20074;-83
2021/12/02 17:20:59;;;;;;;3.47;1.40;;;3.10;99.90;;;;;;4975842;28;20154;-83
2021/12/02 17:23:27;;;;;;;2.83;1.30;;;3.10;99.90;;;;;;4973328;28;20125;-82
2021/12/02 17:25:54;;;;;;;3.15;1.20;;;3.10;99.90;;;;;;4974911;28;20138;-82
2021/12/02 17:28:23;;;;;;;2.80;1.35;;;3.10;99.90;;;;;;4951484;28;20418;-81
2021/12/02 17:30:51;;;;;;;2.95;1.40;;;3.10;99.90;;;;;;4936888;29;20085;-82
2021/12/02 17:33:18;;;;;;;3.90;1.80;;;3.10;99.90;;;;;;4951751;29;20063;-81
2021/12/02 17:35:47;;;;;;;3.40;1.60;;;3.10;99.90;;;;;;4952838;29;20062;-83
2021/12/02 17:38:15;;;;;;;4.85;1.60;;;3.10;99.90;;;;;;4954894;29;20055;-81
2021/12/02 17:40:47;;;;;;;4.03;1.58;;;3.10;99.90;;;;;;4953273;29;20054;-82
2021/12/02 17:43:19;;;;;;;3.13;1.70;;;3.00;99.90;;;;;;4954271;29;20460;-80
2021/12/02 17:45:49;;;;;;;3.28;1.60;;;3.00;99.90;;;;;;4953716;29;20055;-82
2021/12/02 17:48:17;;;;;;;3.05;1.50;;;3.00;99.90;;;;;;4954756;29;20142;-82
2021/12/02 17:50:55;;;;;;;4.22;1.70;;;2.90;99.90;;;;;;4954174;29;20089;-83
2021/12/02 17:53:25;;;;;;;3.60;1.73;;;2.90;99.90;;;;;;4959839;28;20061;-82
2021/12/02 17:55:53;;;;;;;3.95;1.67;;;2.90;99.90;;;;;;4959889;28;20139;-81
2021/12/02 17:58:22;;;;;;;3.92;2.10;;;2.80;99.90;;;;;;4962626;28;20053;-82
2021/12/02 18:00:50;;;;;;;4.05;2.10;;;2.80;99.90;;;;;;4973169;28;20054;-81
2021/12/02 18:03:23;;;;;;;4.88;2.67;;;2.80;99.90;;;;;;4974457;28;20187;-80
2021/12/02 18:05:52;;;;;;;4.65;2.33;;;2.80;99.90;;;;;;4968991;28;20315;-81
2021/12/02 18:08:21;;;;;;;4.32;2.13;;;2.80;99.90;;;;;;4962372;29;20483;-82
2021/12/02 18:10:50;;;;;;;4.65;2.03;;;2.70;99.90;;;;;;4960662;28;20134;-79
2021/12/02 18:13:17;;;;;;;4.35;1.75;;;2.70;99.90;;;;;;4962572;28;20129;-79
2021/12/02 18:15:44;;;;;;;3.78;1.80;;;2.60;99.90;;;;;;4975008;28;20065;-82
2021/12/02 18:18:12;;;;;;;3.78;1.63;;;2.60;99.90;;;;;;4977785;28;20046;-81
2021/12/02 18:20:41;;;;;;;4.22;1.80;;;2.50;99.90;;;;;;4975977;28;20059;-80
2021/12/02 18:23:11;;;;;;;4.82;1.90;;;2.40;99.90;;;;;;4975424;28;20057;-82
2021/12/02 18:25:40;;;;;;;5.07;1.80;;;2.30;99.90;;;;;;4965809;28;20076;-82
2021/12/02 18:28:09;;;;;;;4.40;2.05;;;2.30;99.90;;;;;;4964398;28;20054;-82
2021/12/02 18:30:37;;;;;;;5.80;2.00;;;2.30;99.90;;;;;;4967782;28;20039;-82
2021/12/02 18:33:04;;;;;;;4.95;1.80;;;2.30;99.90;;;;;;4967828;28;20512;-83
2021/12/02 18:35:32;;;;;;;5.22;1.88;;;2.20;99.90;;;;;;4977817;28;20089;-82
2021/12/02 18:37:59;;;;;;;4.88;1.70;;;2.30;99.90;;;;;;4953723;28;20159;-82
2021/12/02 18:40:29;;;;;;;4.38;1.88;;;2.30;99.90;;;;;;4965126;28;20056;-84
2021/12/02 18:42:57;;;;;;;3.72;1.60;;;2.30;99.90;;;;;;4962940;28;20055;-82
2021/12/02 18:45:25;;;;;;;4.80;1.98;;;2.30;99.90;;;;;;4960859;28;20081;-82
2021/12/02 18:47:53;;;;;;;4.43;2.10;;;2.40;99.90;;;;;;4971329;28;20050;-85
2021/12/02 18:50:20;;;;;;;5.85;2.00;;;2.50;99.90;;;;;;4979788;28;20074;-84
2021/12/02 18:52:48;;;;;;;4.63;1.85;;;2.50;99.90;;;;;;4976678;28;20138;-83
2021/12/02 18:55:23;;;;;;;6.43;3.28;;;2.50;99.90;;;;;;4979682;28;20093;-83
2021/12/02 18:57:53;;;;;;;5.95;3.25;;;2.60;99.90;;;;;;4980822;28;20050;-83
2021/12/02 19:00:25;;;;;;;6.55;2.85;;;2.60;99.90;;;;;;4955801;28;20142;-84
2021/12/02 19:02:56;;;;;;;5.05;2.75;;;2.70;99.90;;;;;;4962073;28;20059;-82
2021/12/02 19:05:27;;;;;;;4.35;2.10;;;2.70;99.90;;;;;;4957855;28;20046;-82
2021/12/02 19:08:14;;;;;;;4.00;2.17;;;2.80;99.90;;;;;;4962248;28;20570;-83
2021/12/02 19:27:17;;;;;;;5.70;2.78;;;3.00;99.90;;;;;;4968077;28;20535;-81
2021/12/02 19:29:45;;;;;;;5.45;2.80;;;3.10;99.90;;;;;;4967627;28;20326;-82
2021/12/02 19:32:12;;;;;;;5.53;2.70;;;3.10;99.90;;;;;;4963535;28;20066;-80
2021/12/02 19:34:41;;;;;;;4.45;2.63;;;3.10;99.90;;;;;;4967620;28;20468;-81
2021/12/02 19:37:09;;;;;;;5.05;2.28;;;3.10;99.90;;;;;;4958108;28;20047;-80
2021/12/02 19:39:36;;;;;;;6.30;2.45;;;3.10;99.90;;;;;;4958119;28;20655;-78